sensor_id;sensor_type;location;lat;lon;timestamp;P1;durP1;ratioP1;P2;durP2;ratioP2
56171;SDS011;42052;41.634;-0.946;2023-07-13T00:00:53;5.18;;;1.90;;
56171;SDS011;42052;41.634;-0.946;2023-07-13T00:03:21;3.95;;;2.10;;
56171;SDS011;42052;41.634;-0.946;2023-07-13T00:05:47;4.88;;;1.98;;
56171;SDS011;42052;41.634;-0.946;2023-07-13T00:08:22;5.05;;;2.08;;
56171;SDS011;42052;41.634;-0.946;2023-07-13T00:10:48;4.32;;;2.03;;
56171;SDS011;42052;41.634;-0.946;2023-07-13T00:13:18;3.72;;;2.08;;
56171;SDS011;42052;41.634;-0.946;2023-07-13T00:15:43;5.32;;;2.00;;
56171;SDS011;42052;41.634;-0.946;2023-07-13T00:18:09;3.28;;;1.85;;
56171;SDS011;42052;41.634;-0.946;2023-07-13T00:20:35;3.88;;;1.90;;
56171;SDS011;42052;41.634;-0.946;2023-07-13T00:23:00;3.00;;;1.90;;
56171;SDS011;42052;41.634;-0.946;2023-07-13T00:25:27;3.40;;;1.67;;
56171;SDS011;42052;41.634;-0.946;2023-07-13T00:27:55;5.07;;;1.80;;
56171;SDS011;42052;41.634;-0.946;2023-07-13T00:30:21;3.08;;;1.90;;
56171;SDS011;42052;41.634;-0.946;2023-07-13T00:32:47;3.50;;;1.90;;
56171;SDS011;42052;41.634;-0.946;2023-07-13T00:35:13;5.30;;;1.85;;
56171;SDS011;42052;41.634;-0.946;2023-07-13T00:37:40;5.75;;;1.95;;
56171;SDS011;42052;41.634;-0.946;2023-07-13T00:40:07;6.20;;;2.03;;
56171;SDS011;42052;41.634;-0.946;2023-07-13T00:42:34;3.30;;;1.80;;
56171;SDS011;42052;41.634;-0.946;2023-07-13T00:47:38;4.75;;;1.90;;
56171;SDS011;42052;41.634;-0.946;2023-07-13T00:50:06;4.18;;;1.90;;
56171;SDS011;42052;41.634;-0.946;2023-07-13T00:52:36;5.40;;;1.90;;
56171;SDS011;42052;41.634;-0.946;2023-07-13T00:55:05;3.72;;;1.88;;
56171;SDS011;42052;41.634;-0.946;2023-07-13T00:57:31;4.35;;;2.10;;
56171;SDS011;42052;41.634;-0.946;2023-07-13T00:59:58;5.78;;;2.17;;
56171;SDS011;42052;41.634;-0.946;2023-07-13T01:02:32;2.78;;;1.83;;
56171;SDS011;42052;41.634;-0.946;2023-07-13T01:04:58;5.38;;;2.20;;
56171;SDS011;42052;41.634;-0.946;2023-07-13T01:07:24;5.70;;;2.05;;
56171;SDS011;42052;41.634;-0.946;2023-07-13T01:09:50;4.57;;;2.03;;
56171;SDS011;42052;41.634;-0.946;2023-07-13T01:12:16;5.05;;;2.28;;
56171;SDS011;42052;41.634;-0.946;2023-07-13T01:14:42;4.32;;;2.28;;
56171;SDS011;42052;41.634;-0.946;2023-07-13T01:17:09;4.65;;;1.90;;
56171;SDS011;42052;41.634;-0.946;2023-07-13T01:19:40;3.70;;;2.08;;
56171;SDS011;42052;41.634;-0.946;2023-07-13T01:22:09;3.10;;;2.08;;
56171;SDS011;42052;41.634;-0.946;2023-07-13T01:24:38;4.22;;;1.95;;
56171;SDS011;42052;41.634;-0.946;2023-07-13T01:27:06;3.95;;;1.98;;
56171;SDS011;42052;41.634;-0.946;2023-07-13T01:29:33;4.45;;;2.13;;
56171;SDS011;42052;41.634;-0.946;2023-07-13T01:32:00;4.32;;;2.05;;
56171;SDS011;42052;41.634;-0.946;2023-07-13T01:34:26;4.15;;;1.95;;
56171;SDS011;42052;41.634;-0.946;2023-07-13T01:36:52;3.95;;;2.20;;
56171;SDS011;42052;41.634;-0.946;2023-07-13T01:39:20;3.45;;;1.90;;
56171;SDS011;42052;41.634;-0.946;2023-07-13T01:41:47;7.03;;;2.13;;
56171;SDS011;42052;41.634;-0.946;2023-07-13T01:44:13;5.25;;;2.05;;
56171;SDS011;42052;41.634;-0.946;2023-07-13T01:46:39;4.60;;;2.03;;
56171;SDS011;42052;41.634;-0.946;2023-07-13T01:49:04;4.47;;;1.90;;
56171;SDS011;42052;41.634;-0.946;2023-07-13T01:51:30;2.75;;;1.80;;
56171;SDS011;42052;41.634;-0.946;2023-07-13T01:53:56;5.93;;;1.92;;
56171;SDS011;42052;41.634;-0.946;2023-07-13T01:56:22;3.20;;;1.65;;
56171;SDS011;42052;41.634;-0.946;2023-07-13T01:58:48;4.00;;;2.00;;
56171;SDS011;42052;41.634;-0.946;2023-07-13T02:01:14;4.93;;;1.67;;
56171;SDS011;42052;41.634;-0.946;2023-07-13T02:03:40;2.72;;;1.60;;
56171;SDS011;42052;41.634;-0.946;2023-07-13T02:06:06;3.03;;;1.67;;
56171;SDS011;42052;41.634;-0.946;2023-07-13T02:08:32;3.92;;;1.60;;
56171;SDS011;42052;41.634;-0.946;2023-07-13T02:10:59;3.90;;;1.92;;
56171;SDS011;42052;41.634;-0.946;2023-07-13T02:13:25;6.97;;;1.77;;
56171;SDS011;42052;41.634;-0.946;2023-07-13T02:15:51;2.95;;;1.73;;
56171;SDS011;42052;41.634;-0.946;2023-07-13T02:18:17;6.60;;;1.80;;
56171;SDS011;42052;41.634;-0.946;2023-07-13T02:20:43;3.75;;;1.80;;
56171;SDS011;42052;41.634;-0.946;2023-07-13T02:23:09;4.63;;;1.90;;
56171;SDS011;42052;41.634;-0.946;2023-07-13T02:25:36;3.47;;;1.48;;
56171;SDS011;42052;41.634;-0.946;2023-07-13T02:28:01;2.42;;;1.40;;
56171;SDS011;42052;41.634;-0.946;2023-07-13T02:30:28;3.97;;;1.77;;
56171;SDS011;42052;41.634;-0.946;2023-07-13T02:32:55;3.80;;;1.92;;
56171;SDS011;42052;41.634;-0.946;2023-07-13T02:35:21;2.67;;;1.70;;
56171;SDS011;42052;41.634;-0.946;2023-07-13T02:37:47;3.42;;;1.75;;
56171;SDS011;42052;41.634;-0.946;2023-07-13T02:40:13;2.90;;;1.63;;
56171;SDS011;42052;41.634;-0.946;2023-07-13T02:42:39;3.00;;;1.65;;
56171;SDS011;42052;41.634;-0.946;2023-07-13T02:45:06;2.97;;;1.67;;
56171;SDS011;42052;41.634;-0.946;2023-07-13T02:47:33;2.47;;;1.80;;
56171;SDS011;42052;41.634;-0.946;2023-07-13T02:49:58;3.28;;;1.80;;
56171;SDS011;42052;41.634;-0.946;2023-07-13T02:52:24;3.70;;;1.73;;
56171;SDS011;42052;41.634;-0.946;2023-07-13T02:54:51;2.28;;;1.45;;
56171;SDS011;42052;41.634;-0.946;2023-07-13T02:57:17;2.83;;;1.60;;
56171;SDS011;42052;41.634;-0.946;2023-07-13T02:59:43;4.88;;;1.95;;
56171;SDS011;42052;41.634;-0.946;2023-07-13T03:02:09;3.00;;;1.60;;
56171;SDS011;42052;41.634;-0.946;2023-07-13T03:04:35;2.90;;;1.67;;
56171;SDS011;42052;41.634;-0.946;2023-07-13T03:07:02;3.05;;;1.60;;
56171;SDS011;42052;41.634;-0.946;2023-07-13T03:09:28;3.00;;;1.40;;
56171;SDS011;42052;41.634;-0.946;2023-07-13T03:11:54;3.03;;;1.63;;
56171;SDS011;42052;41.634;-0.946;2023-07-13T03:14:21;3.38;;;1.70;;
56171;SDS011;42052;41.634;-0.946;2023-07-13T03:16:48;4.47;;;1.75;;
56171;SDS011;42052;41.634;-0.946;2023-07-13T03:19:14;4.22;;;1.70;;
56171;SDS011;42052;41.634;-0.946;2023-07-13T03:21:40;2.42;;;1.60;;
56171;SDS011;42052;41.634;-0.946;2023-07-13T03:24:06;3.25;;;1.58;;
56171;SDS011;42052;41.634;-0.946;2023-07-13T03:26:32;2.58;;;1.45;;
56171;SDS011;42052;41.634;-0.946;2023-07-13T03:28:58;3.35;;;1.60;;
56171;SDS011;42052;41.634;-0.946;2023-07-13T03:31:28;3.95;;;1.73;;
56171;SDS011;42052;41.634;-0.946;2023-07-13T03:33:55;4.13;;;1.75;;
56171;SDS011;42052;41.634;-0.946;2023-07-13T03:36:25;3.17;;;1.50;;
56171;SDS011;42052;41.634;-0.946;2023-07-13T03:38:54;2.80;;;1.55;;
56171;SDS011;42052;41.634;-0.946;2023-07-13T03:41:22;3.60;;;1.65;;
56171;SDS011;42052;41.634;-0.946;2023-07-13T03:43:49;3.05;;;1.52;;
56171;SDS011;42052;41.634;-0.946;2023-07-13T03:46:15;4.88;;;1.55;;
56171;SDS011;42052;41.634;-0.946;2023-07-13T03:48:43;3.53;;;1.60;;
56171;SDS011;42052;41.634;-0.946;2023-07-13T03:51:11;3.60;;;1.40;;
56171;SDS011;42052;41.634;-0.946;2023-07-13T03:53:40;3.55;;;1.80;;
56171;SDS011;42052;41.634;-0.946;2023-07-13T03:56:07;2.90;;;1.70;;
56171;SDS011;42052;41.634;-0.946;2023-07-13T03:58:34;3.35;;;1.58;;
56171;SDS011;42052;41.634;-0.946;2023-07-13T04:01:02;3.70;;;1.52;;
56171;SDS011;42052;41.634;-0.946;2023-07-13T04:03:29;3.08;;;1.70;;
56171;SDS011;42052;41.634;-0.946;2023-07-13T04:05:58;3.15;;;1.45;;
56171;SDS011;42052;41.634;-0.946;2023-07-13T04:08:29;2.83;;;1.50;;
56171;SDS011;42052;41.634;-0.946;2023-07-13T04:10:57;3.67;;;1.40;;
56171;SDS011;42052;41.634;-0.946;2023-07-13T04:13:24;2.55;;;1.17;;
56171;SDS011;42052;41.634;-0.946;2023-07-13T04:15:51;4.05;;;1.67;;
56171;SDS011;42052;41.634;-0.946;2023-07-13T04:18:17;3.72;;;1.70;;
56171;SDS011;42052;41.634;-0.946;2023-07-13T04:20:43;1.58;;;1.20;;
56171;SDS011;42052;41.634;-0.946;2023-07-13T04:23:09;2.97;;;1.60;;
56171;SDS011;42052;41.634;-0.946;2023-07-13T04:25:34;5.10;;;1.83;;
56171;SDS011;42052;41.634;-0.946;2023-07-13T04:28:00;4.07;;;1.38;;
56171;SDS011;42052;41.634;-0.946;2023-07-13T04:30:27;3.47;;;1.50;;
56171;SDS011;42052;41.634;-0.946;2023-07-13T04:32:52;2.95;;;1.42;;
56171;SDS011;42052;41.634;-0.946;2023-07-13T04:35:19;5.47;;;1.40;;
56171;SDS011;42052;41.634;-0.946;2023-07-13T04:37:48;3.53;;;1.52;;
56171;SDS011;42052;41.634;-0.946;2023-07-13T04:40:15;2.55;;;1.65;;
56171;SDS011;42052;41.634;-0.946;2023-07-13T04:42:45;3.83;;;1.65;;
56171;SDS011;42052;41.634;-0.946;2023-07-13T04:45:12;4.00;;;1.73;;
56171;SDS011;42052;41.634;-0.946;2023-07-13T04:47:39;2.50;;;1.50;;
56171;SDS011;42052;41.634;-0.946;2023-07-13T04:50:06;4.03;;;1.80;;
56171;SDS011;42052;41.634;-0.946;2023-07-13T04:52:32;2.78;;;1.65;;
56171;SDS011;42052;41.634;-0.946;2023-07-13T04:54:58;3.58;;;1.45;;
56171;SDS011;42052;41.634;-0.946;2023-07-13T04:57:25;3.17;;;1.50;;
56171;SDS011;42052;41.634;-0.946;2023-07-13T04:59:51;2.28;;;1.70;;
56171;SDS011;42052;41.634;-0.946;2023-07-13T05:02:17;3.53;;;1.85;;
56171;SDS011;42052;41.634;-0.946;2023-07-13T05:04:48;4.18;;;1.45;;
56171;SDS011;42052;41.634;-0.946;2023-07-13T05:07:14;2.05;;;1.52;;
56171;SDS011;42052;41.634;-0.946;2023-07-13T05:09:40;3.22;;;1.80;;
56171;SDS011;42052;41.634;-0.946;2023-07-13T05:12:06;1.95;;;1.48;;
56171;SDS011;42052;41.634;-0.946;2023-07-13T05:14:33;2.75;;;1.60;;
56171;SDS011;42052;41.634;-0.946;2023-07-13T05:16:59;5.63;;;1.90;;
56171;SDS011;42052;41.634;-0.946;2023-07-13T05:19:25;6.57;;;2.67;;
56171;SDS011;42052;41.634;-0.946;2023-07-13T05:21:51;23.60;;;5.13;;
56171;SDS011;42052;41.634;-0.946;2023-07-13T05:24:17;19.25;;;4.82;;
56171;SDS011;42052;41.634;-0.946;2023-07-13T05:26:43;26.02;;;6.90;;
56171;SDS011;42052;41.634;-0.946;2023-07-13T05:29:09;25.63;;;6.97;;
56171;SDS011;42052;41.634;-0.946;2023-07-13T05:31:36;23.75;;;5.88;;
56171;SDS011;42052;41.634;-0.946;2023-07-13T05:34:01;14.90;;;4.50;;
56171;SDS011;42052;41.634;-0.946;2023-07-13T05:36:28;16.45;;;4.78;;
56171;SDS011;42052;41.634;-0.946;2023-07-13T05:38:54;9.65;;;3.30;;
56171;SDS011;42052;41.634;-0.946;2023-07-13T05:41:20;11.85;;;3.30;;
56171;SDS011;42052;41.634;-0.946;2023-07-13T05:43:45;10.13;;;3.00;;
56171;SDS011;42052;41.634;-0.946;2023-07-13T05:46:11;9.00;;;2.65;;
56171;SDS011;42052;41.634;-0.946;2023-07-13T05:48:37;6.70;;;2.67;;
56171;SDS011;42052;41.634;-0.946;2023-07-13T05:51:03;6.40;;;2.67;;
56171;SDS011;42052;41.634;-0.946;2023-07-13T05:53:28;7.55;;;2.70;;
56171;SDS011;42052;41.634;-0.946;2023-07-13T05:55:54;5.88;;;2.50;;
56171;SDS011;42052;41.634;-0.946;2023-07-13T05:58:20;7.45;;;2.38;;
56171;SDS011;42052;41.634;-0.946;2023-07-13T06:00:47;7.00;;;2.40;;
56171;SDS011;42052;41.634;-0.946;2023-07-13T06:03:13;4.72;;;2.15;;
56171;SDS011;42052;41.634;-0.946;2023-07-13T06:05:39;4.35;;;1.95;;
56171;SDS011;42052;41.634;-0.946;2023-07-13T06:08:06;3.88;;;2.13;;
56171;SDS011;42052;41.634;-0.946;2023-07-13T06:10:33;4.70;;;2.03;;
56171;SDS011;42052;41.634;-0.946;2023-07-13T06:13:00;5.38;;;2.03;;
56171;SDS011;42052;41.634;-0.946;2023-07-13T06:15:26;3.00;;;1.98;;
56171;SDS011;42052;41.634;-0.946;2023-07-13T06:17:52;4.97;;;2.08;;
56171;SDS011;42052;41.634;-0.946;2023-07-13T06:20:18;3.97;;;1.90;;
56171;SDS011;42052;41.634;-0.946;2023-07-13T06:22:44;4.28;;;1.83;;
56171;SDS011;42052;41.634;-0.946;2023-07-13T06:25:09;4.53;;;1.95;;
56171;SDS011;42052;41.634;-0.946;2023-07-13T06:27:35;5.28;;;2.10;;
56171;SDS011;42052;41.634;-0.946;2023-07-13T06:30:01;6.13;;;1.80;;
56171;SDS011;42052;41.634;-0.946;2023-07-13T06:32:27;7.05;;;1.88;;
56171;SDS011;42052;41.634;-0.946;2023-07-13T06:34:53;5.13;;;1.80;;
56171;SDS011;42052;41.634;-0.946;2023-07-13T06:37:18;4.55;;;2.00;;
56171;SDS011;42052;41.634;-0.946;2023-07-13T06:39:44;4.07;;;2.15;;
56171;SDS011;42052;41.634;-0.946;2023-07-13T06:42:10;4.57;;;2.10;;
56171;SDS011;42052;41.634;-0.946;2023-07-13T06:44:36;3.60;;;1.90;;
56171;SDS011;42052;41.634;-0.946;2023-07-13T06:47:02;5.93;;;1.85;;
56171;SDS011;42052;41.634;-0.946;2023-07-13T06:49:28;4.10;;;1.70;;
56171;SDS011;42052;41.634;-0.946;2023-07-13T06:51:53;4.68;;;1.90;;
56171;SDS011;42052;41.634;-0.946;2023-07-13T06:54:19;5.88;;;2.10;;
56171;SDS011;42052;41.634;-0.946;2023-07-13T06:56:45;6.85;;;1.90;;
56171;SDS011;42052;41.634;-0.946;2023-07-13T06:59:12;19.80;;;5.55;;
56171;SDS011;42052;41.634;-0.946;2023-07-13T07:01:38;24.00;;;5.07;;
56171;SDS011;42052;41.634;-0.946;2023-07-13T07:04:03;32.90;;;7.05;;
56171;SDS011;42052;41.634;-0.946;2023-07-13T07:06:29;31.83;;;6.47;;
56171;SDS011;42052;41.634;-0.946;2023-07-13T07:08:55;21.38;;;5.20;;
56171;SDS011;42052;41.634;-0.946;2023-07-13T07:11:22;22.33;;;4.53;;
56171;SDS011;42052;41.634;-0.946;2023-07-13T07:13:49;10.60;;;2.60;;
56171;SDS011;42052;41.634;-0.946;2023-07-13T07:16:16;11.52;;;3.15;;
56171;SDS011;42052;41.634;-0.946;2023-07-13T07:18:42;14.45;;;2.97;;
56171;SDS011;42052;41.634;-0.946;2023-07-13T07:21:08;11.57;;;2.38;;
56171;SDS011;42052;41.634;-0.946;2023-07-13T07:23:34;8.00;;;2.10;;
56171;SDS011;42052;41.634;-0.946;2023-07-13T07:26:00;12.82;;;2.35;;
56171;SDS011;42052;41.634;-0.946;2023-07-13T07:28:26;8.70;;;2.28;;
56171;SDS011;42052;41.634;-0.946;2023-07-13T07:30:54;9.10;;;2.00;;
56171;SDS011;42052;41.634;-0.946;2023-07-13T07:33:21;7.53;;;1.88;;
56171;SDS011;42052;41.634;-0.946;2023-07-13T07:35:47;8.40;;;2.10;;
56171;SDS011;42052;41.634;-0.946;2023-07-13T07:38:13;5.38;;;1.90;;
56171;SDS011;42052;41.634;-0.946;2023-07-13T07:40:39;8.07;;;2.10;;
56171;SDS011;42052;41.634;-0.946;2023-07-13T07:43:06;7.97;;;1.90;;
56171;SDS011;42052;41.634;-0.946;2023-07-13T07:45:36;6.35;;;1.95;;
56171;SDS011;42052;41.634;-0.946;2023-07-13T07:48:03;6.70;;;1.90;;
56171;SDS011;42052;41.634;-0.946;2023-07-13T07:50:30;9.52;;;1.95;;
56171;SDS011;42052;41.634;-0.946;2023-07-13T07:52:56;5.97;;;1.70;;
56171;SDS011;42052;41.634;-0.946;2023-07-13T07:55:22;8.02;;;1.92;;
56171;SDS011;42052;41.634;-0.946;2023-07-13T07:57:51;5.72;;;1.90;;
56171;SDS011;42052;41.634;-0.946;2023-07-13T08:00:17;5.03;;;1.67;;
56171;SDS011;42052;41.634;-0.946;2023-07-13T08:02:43;9.32;;;2.00;;
56171;SDS011;42052;41.634;-0.946;2023-07-13T08:05:09;5.35;;;1.95;;
56171;SDS011;42052;41.634;-0.946;2023-07-13T08:07:36;6.03;;;2.00;;
56171;SDS011;42052;41.634;-0.946;2023-07-13T08:10:03;5.82;;;1.85;;
56171;SDS011;42052;41.634;-0.946;2023-07-13T08:12:30;4.32;;;1.55;;
56171;SDS011;42052;41.634;-0.946;2023-07-13T08:14:59;4.97;;;1.50;;
56171;SDS011;42052;41.634;-0.946;2023-07-13T08:17:26;5.57;;;1.60;;
56171;SDS011;42052;41.634;-0.946;2023-07-13T08:19:52;5.53;;;1.77;;
56171;SDS011;42052;41.634;-0.946;2023-07-13T08:22:17;4.05;;;1.67;;
56171;SDS011;42052;41.634;-0.946;2023-07-13T08:24:43;3.85;;;1.55;;
56171;SDS011;42052;41.634;-0.946;2023-07-13T08:27:12;5.20;;;1.88;;
56171;SDS011;42052;41.634;-0.946;2023-07-13T08:29:38;4.90;;;1.90;;
56171;SDS011;42052;41.634;-0.946;2023-07-13T08:32:05;5.43;;;1.52;;
56171;SDS011;42052;41.634;-0.946;2023-07-13T08:34:34;5.95;;;1.80;;
56171;SDS011;42052;41.634;-0.946;2023-07-13T08:37:01;3.60;;;1.80;;
56171;SDS011;42052;41.634;-0.946;2023-07-13T08:39:28;5.15;;;1.90;;
56171;SDS011;42052;41.634;-0.946;2023-07-13T08:41:56;4.47;;;1.40;;
56171;SDS011;42052;41.634;-0.946;2023-07-13T08:44:40;4.38;;;1.52;;
56171;SDS011;42052;41.634;-0.946;2023-07-13T08:47:08;2.57;;;1.20;;
56171;SDS011;42052;41.634;-0.946;2023-07-13T08:49:36;4.43;;;1.50;;
56171;SDS011;42052;41.634;-0.946;2023-07-13T08:52:16;3.92;;;1.50;;
56171;SDS011;42052;41.634;-0.946;2023-07-13T08:54:52;3.80;;;1.42;;
56171;SDS011;42052;41.634;-0.946;2023-07-13T08:57:21;4.85;;;1.30;;
56171;SDS011;42052;41.634;-0.946;2023-07-13T08:59:56;4.15;;;1.38;;
56171;SDS011;42052;41.634;-0.946;2023-07-13T09:02:26;4.22;;;1.48;;
56171;SDS011;42052;41.634;-0.946;2023-07-13T09:05:48;2.75;;;1.40;;
56171;SDS011;42052;41.634;-0.946;2023-07-13T09:08:33;3.33;;;1.50;;
56171;SDS011;42052;41.634;-0.946;2023-07-13T09:13:49;2.58;;;1.40;;
56171;SDS011;42052;41.634;-0.946;2023-07-13T09:16:18;3.42;;;1.15;;
56171;SDS011;42052;41.634;-0.946;2023-07-13T09:18:49;3.88;;;1.35;;
56171;SDS011;42052;41.634;-0.946;2023-07-13T09:21:29;4.03;;;1.40;;
56171;SDS011;42052;41.634;-0.946;2023-07-13T09:24:06;6.82;;;1.40;;
56171;SDS011;42052;41.634;-0.946;2023-07-13T09:26:52;3.67;;;1.50;;
56171;SDS011;42052;41.634;-0.946;2023-07-13T09:29:24;3.40;;;1.40;;
56171;SDS011;42052;41.634;-0.946;2023-07-13T09:31:54;3.13;;;1.40;;
56171;SDS011;42052;41.634;-0.946;2023-07-13T09:34:23;4.60;;;1.30;;
56171;SDS011;42052;41.634;-0.946;2023-07-13T09:36:50;3.92;;;1.23;;
56171;SDS011;42052;41.634;-0.946;2023-07-13T09:39:33;2.67;;;1.27;;
56171;SDS011;42052;41.634;-0.946;2023-07-13T09:44:46;3.65;;;1.38;;
56171;SDS011;42052;41.634;-0.946;2023-07-13T09:47:20;4.32;;;1.30;;
56171;SDS011;42052;41.634;-0.946;2023-07-13T09:49:57;3.15;;;1.23;;
56171;SDS011;42052;41.634;-0.946;2023-07-13T09:52:49;2.85;;;1.30;;
56171;SDS011;42052;41.634;-0.946;2023-07-13T09:57:55;2.42;;;1.25;;
56171;SDS011;42052;41.634;-0.946;2023-07-13T10:00:28;3.17;;;1.30;;
56171;SDS011;42052;41.634;-0.946;2023-07-13T10:05:40;3.17;;;1.38;;
56171;SDS011;42052;41.634;-0.946;2023-07-13T10:08:16;2.00;;;1.00;;
56171;SDS011;42052;41.634;-0.946;2023-07-13T10:10:49;3.15;;;1.20;;
56171;SDS011;42052;41.634;-0.946;2023-07-13T10:13:31;2.25;;;1.20;;
56171;SDS011;42052;41.634;-0.946;2023-07-13T10:16:04;2.03;;;1.10;;
56171;SDS011;42052;41.634;-0.946;2023-07-13T10:18:38;2.72;;;1.10;;
56171;SDS011;42052;41.634;-0.946;2023-07-13T10:21:10;2.40;;;1.10;;
56171;SDS011;42052;41.634;-0.946;2023-07-13T10:23:38;1.73;;;0.90;;
56171;SDS011;42052;41.634;-0.946;2023-07-13T10:26:05;4.45;;;1.10;;
56171;SDS011;42052;41.634;-0.946;2023-07-13T10:28:39;2.80;;;1.30;;
56171;SDS011;42052;41.634;-0.946;2023-07-13T10:31:11;2.53;;;1.25;;
56171;SDS011;42052;41.634;-0.946;2023-07-13T10:33:39;1.88;;;1.20;;
56171;SDS011;42052;41.634;-0.946;2023-07-13T10:36:23;1.65;;;0.93;;
56171;SDS011;42052;41.634;-0.946;2023-07-13T10:38:59;1.95;;;1.10;;
56171;SDS011;42052;41.634;-0.946;2023-07-13T10:41:29;2.28;;;1.00;;
56171;SDS011;42052;41.634;-0.946;2023-07-13T10:43:58;2.22;;;1.20;;
56171;SDS011;42052;41.634;-0.946;2023-07-13T10:46:26;1.42;;;0.88;;
56171;SDS011;42052;41.634;-0.946;2023-07-13T10:48:54;2.55;;;1.13;;
56171;SDS011;42052;41.634;-0.946;2023-07-13T10:51:26;2.13;;;1.00;;
56171;SDS011;42052;41.634;-0.946;2023-07-13T10:56:53;1.95;;;1.10;;
56171;SDS011;42052;41.634;-0.946;2023-07-13T10:59:33;2.97;;;1.08;;
56171;SDS011;42052;41.634;-0.946;2023-07-13T11:04:38;2.15;;;0.90;;
56171;SDS011;42052;41.634;-0.946;2023-07-13T11:07:23;2.38;;;1.02;;
56171;SDS011;42052;41.634;-0.946;2023-07-13T11:09:52;1.92;;;0.98;;
56171;SDS011;42052;41.634;-0.946;2023-07-13T11:33:11;1.75;;;1.00;;
56171;SDS011;42052;41.634;-0.946;2023-07-13T11:40:46;1.35;;;0.90;;
56171;SDS011;42052;41.634;-0.946;2023-07-13T11:43:14;1.67;;;0.80;;
56171;SDS011;42052;41.634;-0.946;2023-07-13T11:45:41;2.45;;;0.90;;
56171;SDS011;42052;41.634;-0.946;2023-07-13T11:48:20;2.83;;;0.90;;
56171;SDS011;42052;41.634;-0.946;2023-07-13T11:50:53;2.05;;;0.90;;
56171;SDS011;42052;41.634;-0.946;2023-07-13T11:53:22;1.42;;;0.82;;
56171;SDS011;42052;41.634;-0.946;2023-07-13T11:55:52;2.15;;;0.93;;
56171;SDS011;42052;41.634;-0.946;2023-07-13T11:58:19;1.95;;;0.80;;
56171;SDS011;42052;41.634;-0.946;2023-07-13T12:00:49;2.53;;;0.77;;
56171;SDS011;42052;41.634;-0.946;2023-07-13T12:03:18;2.28;;;0.80;;
56171;SDS011;42052;41.634;-0.946;2023-07-13T12:06:05;1.67;;;0.85;;
56171;SDS011;42052;41.634;-0.946;2023-07-13T12:08:44;1.65;;;0.90;;
56171;SDS011;42052;41.634;-0.946;2023-07-13T12:11:17;1.55;;;0.90;;
56171;SDS011;42052;41.634;-0.946;2023-07-13T12:13:43;2.20;;;0.75;;
56171;SDS011;42052;41.634;-0.946;2023-07-13T12:16:11;1.17;;;0.70;;
56171;SDS011;42052;41.634;-0.946;2023-07-13T12:18:45;1.80;;;0.80;;
56171;SDS011;42052;41.634;-0.946;2023-07-13T12:21:12;1.52;;;0.90;;
56171;SDS011;42052;41.634;-0.946;2023-07-13T12:23:43;2.00;;;0.98;;
56171;SDS011;42052;41.634;-0.946;2023-07-13T12:26:13;1.67;;;0.80;;
56171;SDS011;42052;41.634;-0.946;2023-07-13T12:28:45;1.08;;;0.57;;
56171;SDS011;42052;41.634;-0.946;2023-07-13T12:36:44;1.10;;;0.80;;
56171;SDS011;42052;41.634;-0.946;2023-07-13T12:41:49;1.23;;;0.75;;
56171;SDS011;42052;41.634;-0.946;2023-07-13T12:44:18;1.38;;;0.80;;
56171;SDS011;42052;41.634;-0.946;2023-07-13T12:46:58;1.42;;;0.70;;
56171;SDS011;42052;41.634;-0.946;2023-07-13T12:49:31;1.35;;;0.80;;
56171;SDS011;42052;41.634;-0.946;2023-07-13T12:52:01;1.17;;;0.70;;
56171;SDS011;42052;41.634;-0.946;2023-07-13T12:54:28;1.80;;;0.73;;
56171;SDS011;42052;41.634;-0.946;2023-07-13T12:56:55;1.73;;;0.70;;
56171;SDS011;42052;41.634;-0.946;2023-07-13T12:59:23;1.10;;;0.70;;
56171;SDS011;42052;41.634;-0.946;2023-07-13T13:01:53;1.55;;;0.63;;
56171;SDS011;42052;41.634;-0.946;2023-07-13T13:04:19;1.83;;;0.90;;
56171;SDS011;42052;41.634;-0.946;2023-07-13T13:06:46;1.38;;;0.77;;
56171;SDS011;42052;41.634;-0.946;2023-07-13T13:09:14;2.50;;;0.90;;
56171;SDS011;42052;41.634;-0.946;2023-07-13T13:11:41;1.75;;;0.70;;
56171;SDS011;42052;41.634;-0.946;2023-07-13T13:14:07;1.80;;;0.80;;
56171;SDS011;42052;41.634;-0.946;2023-07-13T13:19:29;1.80;;;0.85;;
56171;SDS011;42052;41.634;-0.946;2023-07-13T13:21:56;1.20;;;0.70;;
56171;SDS011;42052;41.634;-0.946;2023-07-13T13:24:23;1.75;;;0.80;;
56171;SDS011;42052;41.634;-0.946;2023-07-13T13:26:52;0.95;;;0.60;;
56171;SDS011;42052;41.634;-0.946;2023-07-13T13:29:20;1.02;;;0.80;;
56171;SDS011;42052;41.634;-0.946;2023-07-13T13:31:49;1.58;;;0.80;;
56171;SDS011;42052;41.634;-0.946;2023-07-13T13:34:15;1.08;;;0.70;;
56171;SDS011;42052;41.634;-0.946;2023-07-13T13:36:42;1.17;;;0.70;;
56171;SDS011;42052;41.634;-0.946;2023-07-13T13:39:22;1.42;;;0.73;;
56171;SDS011;42052;41.634;-0.946;2023-07-13T13:42:08;1.67;;;0.80;;
56171;SDS011;42052;41.634;-0.946;2023-07-13T13:44:35;2.08;;;0.77;;
56171;SDS011;42052;41.634;-0.946;2023-07-13T13:47:01;1.23;;;0.70;;
56171;SDS011;42052;41.634;-0.946;2023-07-13T13:49:27;2.47;;;0.90;;
56171;SDS011;42052;41.634;-0.946;2023-07-13T13:51:55;0.68;;;0.60;;
56171;SDS011;42052;41.634;-0.946;2023-07-13T13:54:21;1.58;;;0.70;;
56171;SDS011;42052;41.634;-0.946;2023-07-13T13:56:50;1.40;;;0.90;;
56171;SDS011;42052;41.634;-0.946;2023-07-13T13:59:17;0.80;;;0.70;;
56171;SDS011;42052;41.634;-0.946;2023-07-13T14:01:44;3.42;;;0.80;;
56171;SDS011;42052;41.634;-0.946;2023-07-13T14:04:15;2.85;;;0.90;;
56171;SDS011;42052;41.634;-0.946;2023-07-13T14:06:44;2.45;;;0.75;;
56171;SDS011;42052;41.634;-0.946;2023-07-13T14:09:11;2.03;;;0.60;;
56171;SDS011;42052;41.634;-0.946;2023-07-13T14:11:40;1.10;;;0.63;;
56171;SDS011;42052;41.634;-0.946;2023-07-13T14:14:17;2.35;;;0.70;;
56171;SDS011;42052;41.634;-0.946;2023-07-13T14:16:46;2.60;;;0.65;;
56171;SDS011;42052;41.634;-0.946;2023-07-13T14:19:18;1.33;;;0.75;;
56171;SDS011;42052;41.634;-0.946;2023-07-13T14:21:44;1.02;;;0.70;;
56171;SDS011;42052;41.634;-0.946;2023-07-13T14:24:10;1.67;;;0.68;;
56171;SDS011;42052;41.634;-0.946;2023-07-13T14:26:40;1.70;;;0.73;;
56171;SDS011;42052;41.634;-0.946;2023-07-13T14:29:11;1.85;;;0.77;;
56171;SDS011;42052;41.634;-0.946;2023-07-13T14:31:42;4.18;;;0.85;;
56171;SDS011;42052;41.634;-0.946;2023-07-13T14:34:12;2.33;;;1.05;;
56171;SDS011;42052;41.634;-0.946;2023-07-13T14:36:43;2.30;;;0.80;;
56171;SDS011;42052;41.634;-0.946;2023-07-13T14:41:42;3.15;;;0.70;;
56171;SDS011;42052;41.634;-0.946;2023-07-13T14:44:10;1.13;;;0.80;;
56171;SDS011;42052;41.634;-0.946;2023-07-13T14:46:38;2.25;;;0.85;;
56171;SDS011;42052;41.634;-0.946;2023-07-13T14:49:05;0.90;;;0.65;;
56171;SDS011;42052;41.634;-0.946;2023-07-13T14:51:34;1.00;;;0.60;;
56171;SDS011;42052;41.634;-0.946;2023-07-13T14:54:04;2.15;;;0.80;;
56171;SDS011;42052;41.634;-0.946;2023-07-13T14:56:31;1.42;;;0.73;;
56171;SDS011;42052;41.634;-0.946;2023-07-13T14:58:56;2.35;;;0.90;;
56171;SDS011;42052;41.634;-0.946;2023-07-13T15:01:22;3.20;;;0.82;;
56171;SDS011;42052;41.634;-0.946;2023-07-13T15:03:49;1.63;;;0.70;;
56171;SDS011;42052;41.634;-0.946;2023-07-13T15:06:17;1.67;;;0.80;;
56171;SDS011;42052;41.634;-0.946;2023-07-13T15:08:44;1.50;;;0.80;;
56171;SDS011;42052;41.634;-0.946;2023-07-13T15:11:10;1.15;;;0.75;;
56171;SDS011;42052;41.634;-0.946;2023-07-13T15:13:40;2.30;;;0.80;;
56171;SDS011;42052;41.634;-0.946;2023-07-13T15:16:17;1.30;;;0.60;;
56171;SDS011;42052;41.634;-0.946;2023-07-13T15:18:46;1.30;;;0.65;;
56171;SDS011;42052;41.634;-0.946;2023-07-13T15:21:30;1.00;;;0.68;;
56171;SDS011;42052;41.634;-0.946;2023-07-13T15:24:00;1.10;;;0.77;;
56171;SDS011;42052;41.634;-0.946;2023-07-13T15:26:26;2.75;;;0.90;;
56171;SDS011;42052;41.634;-0.946;2023-07-13T15:28:52;1.10;;;0.68;;
56171;SDS011;42052;41.634;-0.946;2023-07-13T15:31:19;2.00;;;0.82;;
56171;SDS011;42052;41.634;-0.946;2023-07-13T15:33:47;1.45;;;0.63;;
56171;SDS011;42052;41.634;-0.946;2023-07-13T15:36:15;1.65;;;0.73;;
56171;SDS011;42052;41.634;-0.946;2023-07-13T15:38:42;0.98;;;0.70;;